Time;durP1;ratioP1;P1;durP2;ratioP2;P2;SDS_P1;SDS_P2;PMS_P1;PMS_P2;Temp;Humidity;BMP_temperature;BMP_pressure;BME280_temperature;BME280_humidity;BME280_pressure;Samples;Min_cycle;Max_cycle;Signal;HPM_P1;HPM_P2
2022/05/10 00:00:58;;;;;;;21.95;12.80;;;;;;;;;;5052223;28;20036;-74
2022/05/10 00:04:03;;;;;;;23.50;13.60;;;;;;;;;;5052481;28;20573;-74
2022/05/10 00:07:08;;;;;;;20.65;12.98;;;;;;;;;;5052419;28;20043;-74
2022/05/10 00:10:12;;;;;;;26.95;13.15;;;;;;;;;;5051555;28;20048;-74
2022/05/10 00:13:17;;;;;;;24.20;12.20;;;;;;;;;;5052386;28;20065;-74
2022/05/10 00:16:21;;;;;;;22.67;12.55;;;;;;;;;;5051210;28;20052;-75
2022/05/10 00:19:27;;;;;;;22.52;12.60;;;;;;;;;;5052234;28;20044;-74
2022/05/10 00:22:32;;;;;;;22.70;12.65;;;;;;;;;;5051391;28;20048;-74
2022/05/10 00:25:38;;;;;;;22.70;13.00;;;;;;;;;;5052125;28;20048;-74
2022/05/10 00:28:42;;;;;;;20.13;13.25;;;;;;;;;;5051803;28;20048;-74
2022/05/10 00:31:46;;;;;;;22.38;13.95;;;;;;;;;;5051062;28;20040;-74
2022/05/10 00:34:51;;;;;;;25.40;13.77;;;;;;;;;;5051104;28;20052;-74
2022/05/10 00:37:57;;;;;;;20.98;13.05;;;;;;;;;;5051977;28;20077;-74
2022/05/10 00:41:20;;;;;;;21.08;13.05;;;;;;;;;;5051844;28;20397;-74
2022/05/10 00:44:28;;;;;;;21.42;12.98;;;;;;;;;;5051901;28;20055;-74
2022/05/10 00:47:32;;;;;;;19.52;13.63;;;;;;;;;;5051366;28;20044;-74
2022/05/10 00:50:55;;;;;;;18.73;12.07;;;;;;;;;;5051588;28;20048;-74
2022/05/10 00:54:05;;;;;;;22.77;11.65;;;;;;;;;;5050939;28;20043;-74
2022/05/10 00:57:09;;;;;;;20.65;12.07;;;;;;;;;;5051326;28;20404;-74
2022/05/10 01:00:16;;;;;;;18.98;11.95;;;;;;;;;;5051596;28;20064;-74
2022/05/10 01:03:29;;;;;;;22.88;11.20;;;;;;;;;;5051401;28;20393;-74
2022/05/10 01:06:44;;;;;;;14.00;11.02;;;;;;;;;;5051506;28;20052;-74
2022/05/10 01:09:51;;;;;;;23.27;11.00;;;;;;;;;;5038638;28;20047;-74
2022/05/10 01:13:19;;;;;;;18.65;10.90;;;;;;;;;;5050590;28;20056;-74
2022/05/10 01:16:24;;;;;;;20.23;10.25;;;;;;;;;;5051140;28;20059;-74
2022/05/10 01:19:28;;;;;;;14.07;9.75;;;;;;;;;;5050266;28;20424;-74
2022/05/10 01:22:51;;;;;;;22.25;10.75;;;;;;;;;;5051358;28;20044;-74
2022/05/10 01:26:02;;;;;;;18.25;11.65;;;;;;;;;;5051130;28;20044;-74
2022/05/10 01:29:08;;;;;;;18.77;10.45;;;;;;;;;;5050859;28;20051;-74
2022/05/10 01:35:54;;;;;;;16.02;9.00;;;;;;;;;;5061839;28;20048;-74
2022/05/10 01:38:58;;;;;;;17.02;9.30;;;;;;;;;;5050950;28;20056;-74
2022/05/10 01:42:07;;;;;;;14.52;9.00;;;;;;;;;;5050223;28;20041;-75
2022/05/10 01:45:25;;;;;;;16.42;8.68;;;;;;;;;;5050743;28;20060;-74
2022/05/10 01:48:33;;;;;;;15.52;8.82;;;;;;;;;;5050875;28;20049;-74
2022/05/10 01:51:57;;;;;;;14.88;8.40;;;;;;;;;;5051002;28;20046;-74
2022/05/10 01:55:13;;;;;;;13.63;8.60;;;;;;;;;;5050937;28;20042;-74
2022/05/10 01:58:26;;;;;;;14.93;8.10;;;;;;;;;;5050931;28;20036;-74
2022/05/10 02:01:35;;;;;;;15.77;8.90;;;;;;;;;;5050850;28;20033;-74
2022/05/10 02:04:40;;;;;;;16.30;8.77;;;;;;;;;;5049989;28;20044;-74
2022/05/10 02:07:45;;;;;;;14.68;8.38;;;;;;;;;;5050667;28;20037;-74
2022/05/10 02:10:52;;;;;;;19.55;8.77;;;;;;;;;;5050814;28;20049;-74
2022/05/10 02:14:05;;;;;;;15.85;8.40;;;;;;;;;;5049872;28;20052;-74
2022/05/10 02:17:18;;;;;;;18.55;8.57;;;;;;;;;;5050316;28;20048;-74
2022/05/10 02:20:31;;;;;;;14.82;8.13;;;;;;;;;;5049953;28;20052;-74
2022/05/10 02:24:08;;;;;;;17.17;8.38;;;;;;;;;;5050605;28;20045;-74
2022/05/10 02:27:20;;;;;;;17.35;8.32;;;;;;;;;;5049859;28;20080;-74
2022/05/10 02:30:26;;;;;;;17.42;8.15;;;;;;;;;;5049483;28;20099;-74
2022/05/10 02:33:31;;;;;;;16.45;8.05;;;;;;;;;;5053314;28;20136;-74
2022/05/10 02:36:35;;;;;;;13.30;8.43;;;;;;;;;;5054117;28;20415;-74
2022/05/10 02:39:39;;;;;;;18.52;8.52;;;;;;;;;;5053815;28;20035;-74
2022/05/10 02:42:47;;;;;;;22.38;9.68;;;;;;;;;;5054222;28;20515;-74
2022/05/10 02:45:54;;;;;;;14.63;8.52;;;;;;;;;;5054234;28;20047;-74
2022/05/10 02:48:59;;;;;;;13.90;8.98;;;;;;;;;;5052832;28;20037;-74
2022/05/10 02:52:03;;;;;;;15.63;8.88;;;;;;;;;;5054047;28;20083;-74
2022/05/10 02:55:28;;;;;;;15.63;8.88;;;;;;;;;;5052627;28;20033;-74
2022/05/10 02:58:39;;;;;;;17.52;8.68;;;;;;;;;;5053767;28;20053;-74
2022/05/10 03:02:09;;;;;;;13.57;8.15;;;;;;;;;;5053048;28;20040;-74
2022/05/10 03:05:14;;;;;;;14.65;8.45;;;;;;;;;;5053088;28;20401;-74
2022/05/10 03:08:18;;;;;;;15.77;8.00;;;;;;;;;;5040512;28;20547;-74
2022/05/10 03:11:22;;;;;;;18.58;9.32;;;;;;;;;;5052770;28;20044;-74
2022/05/10 03:14:26;;;;;;;13.82;7.65;;;;;;;;;;5053138;28;20502;-74
2022/05/10 03:17:31;;;;;;;19.85;8.40;;;;;;;;;;5051619;28;20044;-74
2022/05/10 03:20:35;;;;;;;17.55;9.60;;;;;;;;;;5052586;28;20037;-74
2022/05/10 03:23:40;;;;;;;14.70;8.90;;;;;;;;;;5052815;28;20051;-73
2022/05/10 03:26:46;;;;;;;12.45;7.93;;;;;;;;;;5052748;28;20424;-73
2022/05/10 03:29:51;;;;;;;19.92;9.35;;;;;;;;;;5052487;28;20393;-74
2022/05/10 03:32:55;;;;;;;19.63;9.77;;;;;;;;;;5052374;28;20041;-74
2022/05/10 03:35:59;;;;;;;19.33;9.93;;;;;;;;;;5052056;28;20044;-74
2022/05/10 03:39:04;;;;;;;18.65;10.20;;;;;;;;;;5052871;28;20033;-74
2022/05/10 03:42:09;;;;;;;21.10;9.10;;;;;;;;;;5052540;28;20401;-74
2022/05/10 03:45:14;;;;;;;20.05;9.15;;;;;;;;;;5052312;28;20040;-74
2022/05/10 03:48:18;;;;;;;18.67;9.00;;;;;;;;;;5051677;28;20045;-74
2022/05/10 03:51:23;;;;;;;15.75;8.25;;;;;;;;;;5052087;28;20037;-74
2022/05/10 03:54:27;;;;;;;30.75;10.52;;;;;;;;;;5052019;28;20056;-73
2022/05/10 03:57:32;;;;;;;20.17;10.95;;;;;;;;;;5052170;28;20048;-74
2022/05/10 04:00:36;;;;;;;18.95;11.10;;;;;;;;;;5028823;28;20043;-74
2022/05/10 04:03:41;;;;;;;20.50;11.68;;;;;;;;;;5052384;28;20044;-74
2022/05/10 04:06:45;;;;;;;36.85;17.48;;;;;;;;;;5052607;28;20056;-74
2022/05/10 04:09:52;;;;;;;25.38;13.80;;;;;;;;;;5051828;28;20056;-74
2022/05/10 04:12:56;;;;;;;26.63;12.43;;;;;;;;;;5052496;28;20499;-73
2022/05/10 04:16:01;;;;;;;23.15;12.85;;;;;;;;;;5052237;28;20064;-75
2022/05/10 04:19:05;;;;;;;23.77;12.57;;;;;;;;;;5052124;28;20064;-75
2022/05/10 04:22:10;;;;;;;21.30;12.93;;;;;;;;;;5052304;28;20495;-75
2022/05/10 04:25:23;;;;;;;25.08;12.18;;;;;;;;;;5052065;28;20040;-75
2022/05/10 04:28:28;;;;;;;28.73;14.27;;;;;;;;;;5050649;28;20127;-74
2022/05/10 04:31:32;;;;;;;30.08;14.93;;;;;;;;;;5051323;28;20052;-74
2022/05/10 04:34:36;;;;;;;33.58;16.95;;;;;;;;;;5052037;28;20068;-74
2022/05/10 04:37:41;;;;;;;26.25;16.23;;;;;;;;;;5052633;28;20051;-75
2022/05/10 04:44:10;;;;;;;34.35;15.07;;;;;;;;;;5052879;28;20044;-75
2022/05/10 04:47:14;;;;;;;21.35;12.18;;;;;;;;;;5053575;28;20106;-75
2022/05/10 04:50:19;;;;;;;21.08;11.35;;;;;;;;;;5051821;28;20518;-75
2022/05/10 04:53:23;;;;;;;21.85;10.93;;;;;;;;;;5050975;28;20044;-74
2022/05/10 04:56:28;;;;;;;24.95;10.38;;;;;;;;;;5050811;28;20072;-74
2022/05/10 04:59:32;;;;;;;26.52;12.45;;;;;;;;;;5051768;28;20044;-75
2022/05/10 05:02:36;;;;;;;19.63;10.60;;;;;;;;;;5052297;28;20044;-74
2022/05/10 05:05:40;;;;;;;17.80;9.13;;;;;;;;;;5051425;28;20048;-74
2022/05/10 05:08:45;;;;;;;16.52;9.52;;;;;;;;;;5051319;28;20053;-74
2022/05/10 05:11:49;;;;;;;35.33;13.18;;;;;;;;;;5051671;28;20044;-74
2022/05/10 05:14:53;;;;;;;26.02;10.95;;;;;;;;;;5051001;28;20044;-74
2022/05/10 05:18:03;;;;;;;26.60;10.77;;;;;;;;;;5051578;28;20535;-75
2022/05/10 05:21:07;;;;;;;18.20;9.35;;;;;;;;;;5051913;28;20044;-67
2022/05/10 05:24:12;;;;;;;23.05;10.48;;;;;;;;;;5051840;28;20501;-67
2022/05/10 05:27:16;;;;;;;19.88;9.88;;;;;;;;;;5051436;28;20040;-67
2022/05/10 05:30:21;;;;;;;26.08;11.70;;;;;;;;;;5050246;28;20037;-68
2022/05/10 05:33:25;;;;;;;22.08;11.13;;;;;;;;;;5051007;28;20052;-68
2022/05/10 05:36:29;;;;;;;19.15;11.05;;;;;;;;;;5050830;28;20484;-68
2022/05/10 05:39:34;;;;;;;20.45;10.98;;;;;;;;;;5050570;28;20052;-67
2022/05/10 05:42:38;;;;;;;23.13;11.60;;;;;;;;;;5050756;28;20052;-67
2022/05/10 05:45:42;;;;;;;33.53;13.27;;;;;;;;;;5051112;28;20400;-69
2022/05/10 05:48:47;;;;;;;33.03;12.43;;;;;;;;;;5050585;28;20036;-67
2022/05/10 05:51:55;;;;;;;28.67;11.60;;;;;;;;;;5051057;28;20040;-69
2022/05/10 05:54:59;;;;;;;29.42;11.57;;;;;;;;;;5050773;28;20036;-67
2022/05/10 05:58:03;;;;;;;26.88;11.10;;;;;;;;;;5049136;28;20064;-67
2022/05/10 06:01:15;;;;;;;28.88;12.73;;;;;;;;;;5049768;28;20044;-67
2022/05/10 06:04:20;;;;;;;33.58;11.30;;;;;;;;;;5049890;28;20043;-67
2022/05/10 06:07:24;;;;;;;28.35;10.88;;;;;;;;;;5052478;28;20044;-66
2022/05/10 06:10:29;;;;;;;29.75;11.90;;;;;;;;;;5054195;28;20055;-66
2022/05/10 06:13:35;;;;;;;23.33;11.20;;;;;;;;;;5054264;28;20515;-66
2022/05/10 06:16:42;;;;;;;22.60;10.20;;;;;;;;;;5054249;28;20052;-66
2022/05/10 06:19:46;;;;;;;27.70;10.93;;;;;;;;;;5053990;28;20044;-66
2022/05/10 06:22:51;;;;;;;28.70;11.20;;;;;;;;;;5053866;28;20064;-66
2022/05/10 06:25:56;;;;;;;31.45;11.63;;;;;;;;;;5054198;28;20059;-66
2022/05/10 06:29:00;;;;;;;38.30;11.55;;;;;;;;;;5054203;28;20044;-66
2022/05/10 06:32:04;;;;;;;22.23;10.43;;;;;;;;;;5053813;28;20048;-67
2022/05/10 06:35:09;;;;;;;28.58;11.70;;;;;;;;;;5054097;28;20361;-66
2022/05/10 06:38:16;;;;;;;25.15;11.77;;;;;;;;;;5053572;28;20234;-66
2022/05/10 06:41:21;;;;;;;25.88;11.20;;;;;;;;;;5053709;28;20648;-66
2022/05/10 06:44:26;;;;;;;33.30;12.52;;;;;;;;;;5053610;28;20048;-67
2022/05/10 06:47:30;;;;;;;40.17;12.10;;;;;;;;;;5053731;28;20044;-67
2022/05/10 06:50:36;;;;;;;33.00;10.90;;;;;;;;;;5053431;28;20055;-67
2022/05/10 06:53:40;;;;;;;40.58;11.82;;;;;;;;;;5053436;28;20048;-66
2022/05/10 06:56:45;;;;;;;34.78;11.05;;;;;;;;;;5053777;28;20064;-66
2022/05/10 06:59:49;;;;;;;25.58;10.45;;;;;;;;;;5053359;28;20044;-67
2022/05/10 07:02:55;;;;;;;22.23;11.73;;;;;;;;;;5053822;28;20055;-68
2022/05/10 07:06:01;;;;;;;22.60;12.63;;;;;;;;;;5053521;28;20107;-66
2022/05/10 07:09:05;;;;;;;32.08;12.60;;;;;;;;;;5053000;28;20072;-69
2022/05/10 07:12:09;;;;;;;24.80;12.85;;;;;;;;;;5053266;28;20392;-68
2022/05/10 07:15:15;;;;;;;27.45;13.68;;;;;;;;;;5052978;28;20131;-67
2022/05/10 07:18:23;;;;;;;30.80;14.23;;;;;;;;;;5051711;28;20060;-66
2022/05/10 07:21:27;;;;;;;33.15;13.40;;;;;;;;;;5053068;28;20099;-68
2022/05/10 07:24:32;;;;;;;50.20;16.23;;;;;;;;;;5052972;28;20044;-67
2022/05/10 07:27:36;;;;;;;26.30;13.45;;;;;;;;;;5052919;28;20242;-67
2022/05/10 07:30:41;;;;;;;25.80;11.93;;;;;;;;;;5052849;28;20048;-66
2022/05/10 07:33:45;;;;;;;24.60;11.73;;;;;;;;;;5051628;28;20511;-66
2022/05/10 07:36:52;;;;;;;18.73;10.80;;;;;;;;;;5052317;28;20059;-67
2022/05/10 07:39:57;;;;;;;22.23;9.73;;;;;;;;;;5051505;28;20040;-67
2022/05/10 07:43:01;;;;;;;22.00;7.63;;;;;;;;;;5052734;28;20373;-66
2022/05/10 07:46:06;;;;;;;17.48;8.25;;;;;;;;;;5052617;28;20037;-66
2022/05/10 07:49:10;;;;;;;32.13;7.82;;;;;;;;;;5052508;28;20044;-66
2022/05/10 07:52:14;;;;;;;18.63;7.38;;;;;;;;;;5052421;28;20041;-66
2022/05/10 07:55:18;;;;;;;20.40;6.63;;;;;;;;;;5052381;28;20041;-66
2022/05/10 07:58:23;;;;;;;22.60;7.18;;;;;;;;;;5051843;28;20052;-66
2022/05/10 08:01:27;;;;;;;21.60;6.70;;;;;;;;;;5052253;28;20044;-66
2022/05/10 08:04:32;;;;;;;19.27;6.70;;;;;;;;;;5051089;28;20042;-68
2022/05/10 08:07:36;;;;;;;18.77;7.30;;;;;;;;;;5051829;28;20519;-66
2022/05/10 08:10:42;;;;;;;17.45;6.70;;;;;;;;;;5052023;28;20049;-66
2022/05/10 08:13:46;;;;;;;19.83;6.20;;;;;;;;;;5052157;28;20385;-65
2022/05/10 08:16:51;;;;;;;17.48;5.80;;;;;;;;;;5051985;28;20032;-67
2022/05/10 08:19:55;;;;;;;17.33;4.90;;;;;;;;;;5051575;28;20044;-67
2022/05/10 08:22:59;;;;;;;11.18;4.88;;;;;;;;;;5051700;28;20033;-67
2022/05/10 08:26:04;;;;;;;14.93;4.47;;;;;;;;;;5051979;28;20033;-68
2022/05/10 08:29:08;;;;;;;9.27;4.30;;;;;;;;;;5051552;28;20029;-66
2022/05/10 08:32:12;;;;;;;16.05;3.92;;;;;;;;;;5051529;28;20029;-69
2022/05/10 08:35:17;;;;;;;14.07;4.90;;;;;;;;;;5051564;28;20061;-68
2022/05/10 08:38:21;;;;;;;16.20;4.30;;;;;;;;;;5051011;28;20045;-68
2022/05/10 08:41:31;;;;;;;16.60;4.68;;;;;;;;;;5051481;28;20041;-66
2022/05/10 08:44:39;;;;;;;14.00;4.70;;;;;;;;;;5051109;28;20041;-70
2022/05/10 08:47:46;;;;;;;11.45;3.97;;;;;;;;;;5051362;28;20044;-66
2022/05/10 08:50:50;;;;;;;14.95;3.88;;;;;;;;;;5051294;28;20048;-64
2022/05/10 08:53:55;;;;;;;13.00;4.38;;;;;;;;;;5051220;28;20045;-64
2022/05/10 08:57:04;;;;;;;13.63;4.93;;;;;;;;;;5050385;28;20056;-64
2022/05/10 09:00:23;;;;;;;14.07;4.18;;;;;;;;;;5051465;28;20374;-66
2022/05/10 09:03:34;;;;;;;8.98;3.30;;;;;;;;;;5050341;28;20056;-67
2022/05/10 09:06:42;;;;;;;17.35;3.92;;;;;;;;;;5051314;28;20358;-66
2022/05/10 09:10:02;;;;;;;12.23;4.00;;;;;;;;;;5050777;28;20055;-67
2022/05/10 09:13:10;;;;;;;13.75;3.83;;;;;;;;;;5049950;28;20420;-67
2022/05/10 09:16:15;;;;;;;10.45;3.40;;;;;;;;;;5049627;28;20048;-66
2022/05/10 09:19:19;;;;;;;12.02;4.10;;;;;;;;;;5048847;28;20055;-67
2022/05/10 09:22:26;;;;;;;14.23;4.45;;;;;;;;;;5049612;28;20038;-67
2022/05/10 09:25:34;;;;;;;17.17;4.18;;;;;;;;;;5050326;28;20495;-69
2022/05/10 09:29:08;;;;;;;16.55;4.07;;;;;;;;;;5050607;28;20041;-69
2022/05/10 09:35:48;;;;;;;16.05;3.53;;;;;;;;;;5051036;28;20468;-68
2022/05/10 09:38:57;;;;;;;18.25;4.03;;;;;;;;;;5050372;28;20041;-68
2022/05/10 09:42:04;;;;;;;12.68;4.03;;;;;;;;;;5049781;28;20036;-68
2022/05/10 09:45:14;;;;;;;11.63;3.47;;;;;;;;;;5050865;28;20044;-68
2022/05/10 09:48:18;;;;;;;12.27;3.95;;;;;;;;;;5050458;28;20045;-68
2022/05/10 09:51:26;;;;;;;13.43;3.40;;;;;;;;;;5050736;28;20033;-69
2022/05/10 09:54:41;;;;;;;16.08;3.80;;;;;;;;;;5050539;28;20362;-68
2022/05/10 09:57:47;;;;;;;10.18;3.90;;;;;;;;;;5049067;28;20049;-68
2022/05/10 10:00:52;;;;;;;15.48;3.58;;;;;;;;;;5049521;28;20040;-68
2022/05/10 10:04:12;;;;;;;11.38;3.47;;;;;;;;;;5050416;28;20353;-68
2022/05/10 10:07:24;;;;;;;12.27;3.40;;;;;;;;;;5050306;28;20041;-69
2022/05/10 10:10:31;;;;;;;12.52;3.42;;;;;;;;;;5049491;28;20516;-67
2022/05/10 10:13:38;;;;;;;10.25;3.40;;;;;;;;;;5050552;28;20056;-68
2022/05/10 10:16:45;;;;;;;10.75;3.72;;;;;;;;;;5050383;28;20037;-68
2022/05/10 10:19:57;;;;;;;12.32;3.40;;;;;;;;;;5050063;28;20040;-68
2022/05/10 10:23:03;;;;;;;18.75;4.07;;;;;;;;;;5049397;28;20029;-69
2022/05/10 10:26:12;;;;;;;10.25;3.17;;;;;;;;;;5049959;28;20041;-68
2022/05/10 10:29:35;;;;;;;15.35;3.88;;;;;;;;;;5049965;28;20049;-67
2022/05/10 10:32:44;;;;;;;8.80;3.15;;;;;;;;;;5050276;28;20494;-67
2022/05/10 10:35:51;;;;;;;9.50;3.95;;;;;;;;;;5050241;28;20036;-66
2022/05/10 10:38:55;;;;;;;11.15;3.92;;;;;;;;;;5049738;28;20048;-66
2022/05/10 10:42:03;;;;;;;13.63;3.97;;;;;;;;;;5050082;28;20033;-67
2022/05/10 10:45:14;;;;;;;13.57;3.85;;;;;;;;;;5050064;28;20041;-67
2022/05/10 10:48:29;;;;;;;16.23;3.95;;;;;;;;;;5049841;28;20249;-66
2022/05/10 10:51:34;;;;;;;13.27;4.32;;;;;;;;;;5049698;28;20033;-67
2022/05/10 10:54:39;;;;;;;12.73;3.25;;;;;;;;;;5053571;28;20040;-66
2022/05/10 10:57:52;;;;;;;9.02;3.00;;;;;;;;;;5053309;28;20049;-67
2022/05/10 11:01:06;;;;;;;13.88;4.13;;;;;;;;;;5053445;28;20037;-67
2022/05/10 11:04:17;;;;;;;12.80;3.55;;;;;;;;;;5053599;28;20037;-67
2022/05/10 11:07:37;;;;;;;8.07;3.38;;;;;;;;;;5053628;28;20053;-67
2022/05/10 11:11:00;;;;;;;13.20;3.20;;;;;;;;;;5053101;28;20049;-68
2022/05/10 11:14:13;;;;;;;12.38;3.90;;;;;;;;;;5053410;28;20037;-68
2022/05/10 11:17:17;;;;;;;15.73;4.05;;;;;;;;;;5052758;28;20040;-67
2022/05/10 11:20:25;;;;;;;16.88;4.78;;;;;;;;;;5053390;28;20057;-66
2022/05/10 11:23:50;;;;;;;13.23;3.75;;;;;;;;;;5053049;28;20054;-67
2022/05/10 11:27:09;;;;;;;11.88;3.35;;;;;;;;;;5052954;28;20040;-67
2022/05/10 11:30:21;;;;;;;15.90;3.97;;;;;;;;;;5051809;28;20033;-66
2022/05/10 11:33:25;;;;;;;13.95;4.43;;;;;;;;;;5052937;28;20044;-67
2022/05/10 11:36:32;;;;;;;12.73;3.85;;;;;;;;;;5052702;28;20098;-66
2022/05/10 11:39:55;;;;;;;10.65;3.80;;;;;;;;;;5052035;28;20110;-67
2022/05/10 11:42:59;;;;;;;13.25;3.80;;;;;;;;;;5053014;28;20043;-67
2022/05/10 11:46:10;;;;;;;13.82;3.78;;;;;;;;;;5052627;28;20033;-66
2022/05/10 11:49:17;;;;;;;9.73;3.30;;;;;;;;;;5052359;28;20064;-68
2022/05/10 11:52:29;;;;;;;10.85;3.53;;;;;;;;;;5052783;28;20477;-68
2022/05/10 11:55:59;;;;;;;8.13;3.30;;;;;;;;;;5052876;28;20041;-69
2022/05/10 11:59:14;;;;;;;13.45;3.83;;;;;;;;;;5052087;28;20381;-67
2022/05/10 12:02:28;;;;;;;17.30;4.03;;;;;;;;;;5051362;28;20388;-66
2022/05/10 12:05:37;;;;;;;17.75;3.63;;;;;;;;;;5051537;28;20037;-67
2022/05/10 12:08:43;;;;;;;11.95;4.20;;;;;;;;;;5052137;28;20060;-67
2022/05/10 12:11:49;;;;;;;14.13;3.60;;;;;;;;;;5051934;28;20032;-66
2022/05/10 12:21:19;;;;;;;15.32;4.13;;;;;;;;;;5051450;28;20041;-66
2022/05/10 12:21:43;;;;;;;12.20;4.18;;;;;;;;;;5051871;28;20045;-68
2022/05/10 12:24:49;;;;;;;17.25;5.40;;;;;;;;;;5052051;28;20044;-68
2022/05/10 12:28:00;;;;;;;12.00;3.75;;;;;;;;;;5051910;28;20052;-67
2022/05/10 12:31:31;;;;;;;17.95;5.15;;;;;;;;;;5051481;28;20037;-67
2022/05/10 12:34:35;;;;;;;;;;;;;;;;;;5052564;28;20485;-67
2022/05/10 12:37:40;;;;;;;15.35;4.43;;;;;;;;;;5050277;28;19920;-68
2022/05/10 12:40:51;;;;;;;15.18;4.45;;;;;;;;;;5051532;28;20036;-68
2022/05/10 12:43:56;;;;;;;15.85;5.22;;;;;;;;;;5051280;28;20045;-68
2022/05/10 12:47:01;;;;;;;12.93;4.72;;;;;;;;;;5051386;28;20041;-68
2022/05/10 12:50:07;;;;;;;16.67;5.20;;;;;;;;;;5051367;28;20033;-67
2022/05/10 12:53:38;;;;;;;15.15;4.70;;;;;;;;;;5050420;28;20037;-67
2022/05/10 12:56:42;;;;;;;13.70;4.75;;;;;;;;;;5051374;28;20432;-68
2022/05/10 12:59:49;;;;;;;10.27;4.07;;;;;;;;;;5051422;28;20068;-67
2022/05/10 13:03:05;;;;;;;16.45;5.00;;;;;;;;;;5051167;28;20044;-67
2022/05/10 13:06:22;;;;;;;15.70;4.80;;;;;;;;;;5050595;28;20396;-68
2022/05/10 13:09:26;;;;;;;17.73;4.53;;;;;;;;;;5050047;28;20049;-68
2022/05/10 13:12:35;;;;;;;10.38;3.80;;;;;;;;;;5050802;28;20037;-68
2022/05/10 13:15:40;;;;;;;15.07;4.28;;;;;;;;;;5050488;28;20412;-67
2022/05/10 13:18:46;;;;;;;22.75;4.97;;;;;;;;;;5050931;28;20409;-68
2022/05/10 13:21:51;;;;;;;12.05;4.38;;;;;;;;;;5051090;28;20033;-67
2022/05/10 13:24:58;;;;;;;11.10;4.50;;;;;;;;;;5050075;28;20511;-68
2022/05/10 13:28:10;;;;;;;10.40;4.10;;;;;;;;;;5051028;28;20043;-68
2022/05/10 13:31:19;;;;;;;7.78;3.33;;;;;;;;;;5050741;28;20041;-68
2022/05/10 13:34:24;;;;;;;10.77;4.10;;;;;;;;;;5050583;28;20037;-67
2022/05/10 13:37:30;;;;;;;9.57;3.15;;;;;;;;;;5050963;28;20389;-67
2022/05/10 13:40:38;;;;;;;10.35;3.63;;;;;;;;;;5050472;28;20041;-67
2022/05/10 13:43:45;;;;;;;14.82;3.95;;;;;;;;;;5050666;28;20040;-67
2022/05/10 13:46:53;;;;;;;10.02;3.45;;;;;;;;;;5050767;28;20496;-68
2022/05/10 13:49:59;;;;;;;11.35;3.42;;;;;;;;;;5050749;28;20037;-67
2022/05/10 13:53:05;;;;;;;18.27;4.00;;;;;;;;;;5050422;28;20045;-67
2022/05/10 13:56:12;;;;;;;9.82;2.80;;;;;;;;;;5049814;28;20043;-67
2022/05/10 13:59:28;;;;;;;7.55;3.20;;;;;;;;;;5050307;28;20049;-67
2022/05/10 14:02:33;;;;;;;12.40;4.47;;;;;;;;;;5050702;28;20037;-68
2022/05/10 14:05:38;;;;;;;10.48;3.47;;;;;;;;;;5050670;28;20040;-68
2022/05/10 14:08:45;;;;;;;9.35;2.60;;;;;;;;;;5050075;28;20049;-67
2022/05/10 14:11:49;;;;;;;19.63;3.65;;;;;;;;;;5050185;28;20041;-68
2022/05/10 14:15:12;;;;;;;29.13;4.88;;;;;;;;;;5050365;28;20040;-67
2022/05/10 14:18:19;;;;;;;34.20;6.97;;;;;;;;;;5050201;28;20049;-68
2022/05/10 14:21:25;;;;;;;21.15;5.18;;;;;;;;;;5049302;28;20103;-68
2022/05/10 14:24:29;;;;;;;12.63;4.30;;;;;;;;;;5050226;28;20056;-67
2022/05/10 14:27:37;;;;;;;17.48;3.60;;;;;;;;;;5051078;28;20048;-67
2022/05/10 14:30:44;;;;;;;9.40;3.30;;;;;;;;;;5053934;28;20045;-68
2022/05/10 14:33:52;;;;;;;11.65;3.50;;;;;;;;;;5053892;28;20033;-66
2022/05/10 14:36:56;;;;;;;14.38;4.45;;;;;;;;;;5053850;28;20108;-68
2022/05/10 14:40:12;;;;;;;18.73;5.13;;;;;;;;;;5053688;28;20052;-66
2022/05/10 14:43:23;;;;;;;20.17;4.95;;;;;;;;;;5053758;28;20511;-66
2022/05/10 14:46:32;;;;;;;19.63;4.88;;;;;;;;;;5052845;28;20037;-68
2022/05/10 14:49:41;;;;;;;16.02;4.60;;;;;;;;;;5053681;28;20511;-68
2022/05/10 14:53:06;;;;;;;28.00;6.20;;;;;;;;;;5053964;28;20393;-68
2022/05/10 14:56:10;;;;;;;16.13;4.82;;;;;;;;;;5053442;28;20388;-69
2022/05/10 15:03:03;;;;;;;24.90;6.88;;;;;;;;;;5053432;28;20025;-69
2022/05/10 15:06:08;;;;;;;20.40;4.97;;;;;;;;;;5053174;28;20044;-68
2022/05/10 15:09:12;;;;;;;13.15;4.70;;;;;;;;;;5051918;28;20137;-71
2022/05/10 15:15:48;;;;;;;33.20;5.80;;;;;;;;;;5052855;28;20440;-70
2022/05/10 15:18:58;;;;;;;18.67;5.30;;;;;;;;;;5052728;28;20076;-69
2022/05/10 15:22:07;;;;;;;16.10;5.13;;;;;;;;;;5051711;28;20049;-68
2022/05/10 15:25:14;;;;;;;15.52;4.57;;;;;;;;;;5051200;28;20422;-68
2022/05/10 15:28:19;;;;;;;19.02;4.53;;;;;;;;;;5052357;28;20037;-68
2022/05/10 15:31:24;;;;;;;14.98;4.60;;;;;;;;;;5052573;28;20048;-68
2022/05/10 15:34:43;;;;;;;20.05;5.22;;;;;;;;;;5052393;28;20032;-68
2022/05/10 15:37:48;;;;;;;21.65;5.60;;;;;;;;;;5052328;28;20040;-69
2022/05/10 15:40:53;;;;;;;20.50;4.72;;;;;;;;;;5051593;28;20049;-70
2022/05/10 15:43:59;;;;;;;14.82;4.22;;;;;;;;;;5052547;28;20029;-68
2022/05/10 15:47:05;;;;;;;22.60;6.88;;;;;;;;;;5052433;28;20045;-69
2022/05/10 15:50:12;;;;;;;14.65;3.65;;;;;;;;;;5052840;28;20052;-68
2022/05/10 15:53:17;;;;;;;21.30;4.93;;;;;;;;;;5052376;28;20048;-68
2022/05/10 15:56:22;;;;;;;15.80;5.10;;;;;;;;;;5052179;28;20033;-68
2022/05/10 15:59:26;;;;;;;15.20;4.65;;;;;;;;;;5051583;28;20515;-69
2022/05/10 16:02:30;;;;;;;11.82;4.55;;;;;;;;;;5052098;28;20047;-70
2022/05/10 16:05:40;;;;;;;16.15;4.93;;;;;;;;;;5052292;28;20048;-69
2022/05/10 16:08:44;;;;;;;16.50;5.63;;;;;;;;;;5051741;28;20527;-69
2022/05/10 16:11:49;;;;;;;16.20;4.28;;;;;;;;;;5051909;28;20373;-71
2022/05/10 16:14:57;;;;;;;26.00;14.85;;;;;;;;;;5051793;28;20388;-69
2022/05/10 16:18:01;;;;;;;19.55;8.13;;;;;;;;;;5051750;28;20117;-68
2022/05/10 16:21:05;;;;;;;18.73;6.85;;;;;;;;;;5051669;28;20040;-69
2022/05/10 16:24:09;;;;;;;15.73;9.43;;;;;;;;;;5050533;28;20040;-67
2022/05/10 16:30:36;;;;;;;19.67;8.02;;;;;;;;;;5051441;28;20439;-68
2022/05/10 16:33:41;;;;;;;15.40;6.25;;;;;;;;;;5051521;28;20060;-68
2022/05/10 16:36:45;;;;;;;17.58;6.25;;;;;;;;;;5051691;28;20045;-68
2022/05/10 16:39:49;;;;;;;17.38;6.40;;;;;;;;;;5051222;28;20041;-68
2022/05/10 16:42:54;;;;;;;19.20;6.95;;;;;;;;;;5051421;28;20052;-68
2022/05/10 16:45:58;;;;;;;14.07;7.00;;;;;;;;;;5051328;28;20040;-68
2022/05/10 16:49:06;;;;;;;19.50;6.68;;;;;;;;;;5051225;28;20049;-68
2022/05/10 16:52:12;;;;;;;20.50;8.05;;;;;;;;;;5051665;28;20044;-68
2022/05/10 16:55:18;;;;;;;16.77;7.43;;;;;;;;;;5051220;28;20052;-68
2022/05/10 16:58:22;;;;;;;14.07;6.28;;;;;;;;;;5051008;28;20042;-68
2022/05/10 17:01:26;;;;;;;17.98;7.93;;;;;;;;;;5051106;28;20045;-67
2022/05/10 17:04:31;;;;;;;19.00;8.35;;;;;;;;;;5051352;28;20037;-67
2022/05/10 17:07:35;;;;;;;15.25;6.82;;;;;;;;;;5050051;28;20029;-67
2022/05/10 17:10:40;;;;;;;22.30;7.80;;;;;;;;;;5050931;28;20049;-66
2022/05/10 17:13:44;;;;;;;20.33;8.02;;;;;;;;;;5050833;28;20058;-67
2022/05/10 17:16:49;;;;;;;18.10;7.55;;;;;;;;;;5050605;28;20037;-67
2022/05/10 17:19:54;;;;;;;18.95;7.43;;;;;;;;;;5050925;28;20049;-67
2022/05/10 17:22:59;;;;;;;23.73;9.55;;;;;;;;;;5050891;28;20500;-67
2022/05/10 17:26:07;;;;;;;27.55;8.00;;;;;;;;;;5050657;28;20116;-67
2022/05/10 17:29:12;;;;;;;26.25;8.45;;;;;;;;;;5050461;28;20195;-67
2022/05/10 17:32:16;;;;;;;17.08;8.02;;;;;;;;;;5050739;28;20387;-67
2022/05/10 17:35:20;;;;;;;17.58;7.38;;;;;;;;;;5050634;28;20496;-67
2022/05/10 17:38:25;;;;;;;21.73;9.95;;;;;;;;;;5050363;28;20052;-67
2022/05/10 17:41:31;;;;;;;23.90;12.95;;;;;;;;;;5050693;28;20028;-67
2022/05/10 17:44:35;;;;;;;21.52;8.57;;;;;;;;;;5050550;28;20060;-67
2022/05/10 17:47:40;;;;;;;21.05;9.43;;;;;;;;;;5050469;28;20067;-67
2022/05/10 17:50:44;;;;;;;19.50;8.93;;;;;;;;;;5050402;28;20505;-67
2022/05/10 17:53:49;;;;;;;22.23;8.30;;;;;;;;;;5050191;28;20048;-67
2022/05/10 17:56:56;;;;;;;34.75;9.05;;;;;;;;;;5050357;28;20037;-66
2022/05/10 18:00:00;;;;;;;20.83;8.93;;;;;;;;;;5050075;28;20466;-67
2022/05/10 18:03:05;;;;;;;20.95;9.40;;;;;;;;;;5051806;28;20044;-67
2022/05/10 18:06:09;;;;;;;28.05;9.05;;;;;;;;;;5054647;28;20496;-67
2022/05/10 18:09:14;;;;;;;22.75;9.43;;;;;;;;;;5053602;28;20049;-67
2022/05/10 18:12:18;;;;;;;27.80;10.10;;;;;;;;;;5053655;28;20069;-67
2022/05/10 18:15:23;;;;;;;21.40;9.43;;;;;;;;;;5054245;28;20064;-67
2022/05/10 18:18:28;;;;;;;28.80;10.50;;;;;;;;;;5054124;28;20048;-68
2022/05/10 18:21:32;;;;;;;28.98;10.57;;;;;;;;;;5053984;28;20055;-68
2022/05/10 18:24:36;;;;;;;29.48;10.80;;;;;;;;;;5054597;28;20044;-68
2022/05/10 18:27:41;;;;;;;31.63;10.57;;;;;;;;;;5053865;28;20048;-68
2022/05/10 18:30:46;;;;;;;21.38;10.93;;;;;;;;;;5053895;28;20048;-68
2022/05/10 18:33:51;;;;;;;25.80;10.60;;;;;;;;;;5053711;28;20064;-68
2022/05/10 18:36:56;;;;;;;35.22;11.63;;;;;;;;;;5053541;28;20036;-68
2022/05/10 18:40:01;;;;;;;25.08;10.25;;;;;;;;;;5053339;28;20048;-68
2022/05/10 18:43:05;;;;;;;33.75;12.25;;;;;;;;;;5054039;28;20047;-68
2022/05/10 18:46:10;;;;;;;28.98;11.02;;;;;;;;;;5054167;28;20048;-68